Time;durP1;ratioP1;P1;durP2;ratioP2;P2;SDS_P1;SDS_P2;PMS_P1;PMS_P2;Temp;Humidity;BMP_temperature;BMP_pressure;BME280_temperature;BME280_humidity;BME280_pressure;Samples;Min_cycle;Max_cycle;Signal;HPM_P1;HPM_P2
2021/01/23 00:01:14;;;;;;;87.38;40.83;;;0.70;97.80;;;;;;5054479;28;20046;-80
2021/01/23 00:03:40;;;;;;;75.65;39.28;;;0.70;97.80;;;;;;5059932;28;20543;-79
2021/01/23 00:06:05;;;;;;;80.88;42.42;;;0.70;97.70;;;;;;5038109;28;20068;-80
2021/01/23 00:08:31;;;;;;;86.13;44.15;;;0.60;97.70;;;;;;5027946;28;20642;-80
2021/01/23 00:10:57;;;;;;;91.63;44.33;;;0.60;97.70;;;;;;5023833;28;20053;-80
2021/01/23 00:13:22;;;;;;;81.40;43.63;;;0.60;97.70;;;;;;5025020;28;20048;-80
2021/01/23 00:15:48;;;;;;;78.13;39.03;;;0.60;97.70;;;;;;5024154;28;20179;-80
2021/01/23 00:18:14;;;;;;;83.60;39.22;;;0.60;97.70;;;;;;5048321;28;20049;-79
2021/01/23 00:20:40;;;;;;;93.70;44.00;;;0.60;97.70;;;;;;5042853;28;20041;-80
2021/01/23 00:23:05;;;;;;;88.35;45.85;;;0.50;97.70;;;;;;5021173;28;20048;-80
2021/01/23 00:25:31;;;;;;;85.28;39.38;;;0.60;97.80;;;;;;5039844;28;20551;-79
2021/01/23 00:27:57;;;;;;;84.75;42.05;;;0.50;97.80;;;;;;5018009;28;20045;-79
2021/01/23 00:30:23;;;;;;;81.55;42.75;;;0.50;97.80;;;;;;5025780;28;20099;-80
2021/01/23 00:32:48;;;;;;;90.10;43.00;;;0.50;97.80;;;;;;5037277;28;20041;-80
2021/01/23 00:35:15;;;;;;;81.88;40.58;;;0.50;97.80;;;;;;5025903;28;20045;-81
2021/01/23 00:37:41;;;;;;;84.63;45.17;;;0.50;97.80;;;;;;5039993;28;20094;-79
2021/01/23 00:40:07;;;;;;;93.45;45.55;;;0.50;97.90;;;;;;5052201;28;20044;-79
2021/01/23 00:42:33;;;;;;;94.68;44.70;;;0.50;97.80;;;;;;5043994;28;20037;-80
2021/01/23 00:44:59;;;;;;;80.45;44.33;;;0.50;97.90;;;;;;5061673;28;20179;-79
2021/01/23 00:47:24;;;;;;;85.03;43.65;;;0.50;97.90;;;;;;5026105;28;20045;-80
2021/01/23 00:49:50;;;;;;;86.90;40.95;;;0.50;97.90;;;;;;5051913;28;20037;-79
2021/01/23 00:52:16;;;;;;;83.00;43.22;;;0.50;97.90;;;;;;5033387;28;20068;-80
2021/01/23 00:54:41;;;;;;;81.80;43.58;;;0.40;97.90;;;;;;5026643;28;20061;-79
2021/01/23 00:57:11;;;;;;;84.22;41.85;;;0.40;97.90;;;;;;5025731;28;20059;-80
2021/01/23 00:59:37;;;;;;;81.40;41.28;;;0.50;97.90;;;;;;5030875;28;20033;-79
2021/01/23 01:02:02;;;;;;;87.53;44.50;;;0.40;97.90;;;;;;5029974;28;20151;-80
2021/01/23 01:04:28;;;;;;;81.97;44.00;;;0.50;98.00;;;;;;5022275;28;20048;-80
2021/01/23 01:06:54;;;;;;;71.82;41.75;;;0.50;98.00;;;;;;5047307;28;20063;-80
2021/01/23 01:09:20;;;;;;;67.25;37.72;;;0.50;98.30;;;;;;5039879;28;20048;-80
2021/01/23 01:11:45;;;;;;;78.47;47.33;;;0.50;98.00;;;;;;5049772;28;20060;-80
2021/01/23 01:14:11;;;;;;;78.80;43.03;;;0.50;98.00;;;;;;5042513;28;20054;-80
2021/01/23 01:16:37;;;;;;;78.47;46.95;;;0.50;98.10;;;;;;5050025;28;20071;-80
2021/01/23 01:19:03;;;;;;;72.45;40.95;;;0.50;98.10;;;;;;5020390;28;20056;-79
2021/01/23 01:21:28;;;;;;;71.72;39.92;;;0.50;98.10;;;;;;5016172;28;20056;-79
2021/01/23 01:23:54;;;;;;;76.35;39.67;;;0.50;98.10;;;;;;5035181;28;20176;-79
2021/01/23 01:26:20;;;;;;;82.47;41.58;;;0.50;98.00;;;;;;5031775;28;20048;-79
2021/01/23 01:28:45;;;;;;;83.93;43.08;;;0.50;98.00;;;;;;5036559;28;20041;-79
2021/01/23 01:31:11;;;;;;;72.13;43.60;;;0.50;98.00;;;;;;5025870;28;20038;-79
2021/01/23 01:33:37;;;;;;;72.70;43.30;;;0.40;98.00;;;;;;5055108;28;20178;-79
2021/01/23 01:36:03;;;;;;;66.25;38.47;;;0.50;98.10;;;;;;5058890;28;20432;-79
2021/01/23 01:38:29;;;;;;;78.13;44.25;;;0.50;98.10;;;;;;5045799;28;20381;-79
2021/01/23 01:40:54;;;;;;;80.15;46.17;;;0.40;98.10;;;;;;5044349;28;20049;-79
2021/01/23 01:43:20;;;;;;;78.57;44.40;;;0.40;98.20;;;;;;5046783;28;20049;-79
2021/01/23 01:45:46;;;;;;;81.40;44.30;;;0.40;98.20;;;;;;5025307;28;20121;-79
2021/01/23 01:48:13;;;;;;;80.72;43.97;;;0.50;98.20;;;;;;5027301;28;20079;-79
2021/01/23 01:50:39;;;;;;;79.22;43.88;;;0.40;98.10;;;;;;5053035;28;20254;-79
2021/01/23 01:53:06;;;;;;;87.70;44.65;;;0.40;98.10;;;;;;5045693;28;20077;-79
2021/01/23 01:55:34;;;;;;;84.80;42.88;;;0.40;98.10;;;;;;5040635;28;20036;-79
2021/01/23 01:58:01;;;;;;;78.82;43.80;;;0.30;98.10;;;;;;5024505;28;20060;-79
2021/01/23 02:00:27;;;;;;;96.28;47.97;;;0.30;98.10;;;;;;5058530;28;20087;-79
2021/01/23 02:03:02;;;;;;;93.80;51.53;;;0.30;98.10;;;;;;5043576;28;20038;-79
2021/01/23 02:05:47;;;;;;;87.30;45.08;;;0.30;98.10;;;;;;5006523;28;20087;-79
2021/01/23 02:08:38;;;;;;;93.90;47.83;;;0.30;98.10;;;;;;5032902;28;20049;-80
2021/01/23 02:11:14;;;;;;;96.80;50.58;;;0.30;98.10;;;;;;5034652;28;20041;-79
2021/01/23 02:13:49;;;;;;;87.82;45.00;;;0.30;98.20;;;;;;5027930;28;20059;-79
2021/01/23 02:16:20;;;;;;;99.05;53.75;;;0.30;98.20;;;;;;5034724;28;20041;-79
2021/01/23 02:19:01;;;;;;;98.35;53.15;;;0.20;98.20;;;;;;5041624;28;20529;-79
2021/01/23 02:21:47;;;;;;;89.82;48.03;;;0.30;98.20;;;;;;5019408;28;20037;-79
2021/01/23 02:24:18;;;;;;;103.10;51.92;;;0.20;98.20;;;;;;5043733;28;20692;-80
2021/01/23 02:26:58;;;;;;;104.57;50.35;;;0.30;98.20;;;;;;5010216;28;20049;-79
2021/01/23 02:30:06;;;;;;;95.75;46.75;;;0.30;98.20;;;;;;5020585;28;20121;-79
2021/01/23 02:32:37;;;;;;;106.93;52.63;;;0.20;98.20;;;;;;5005363;28;20129;-79
2021/01/23 02:35:04;;;;;;;94.97;51.88;;;0.20;98.20;;;;;;5024441;28;20033;-79
2021/01/23 02:37:31;;;;;;;96.10;55.00;;;0.20;98.30;;;;;;5016611;28;20042;-79
2021/01/23 02:39:58;;;;;;;91.53;55.80;;;0.30;98.30;;;;;;5000636;28;20041;-79
2021/01/23 02:42:23;;;;;;;84.93;52.03;;;0.30;98.40;;;;;;5006399;28;20513;-79
2021/01/23 02:44:49;;;;;;;87.88;54.28;;;0.40;98.60;;;;;;5021213;28;20069;-79
2021/01/23 02:47:15;;;;;;;91.72;51.70;;;0.50;98.60;;;;;;5016046;28;20143;-79
2021/01/23 02:49:40;;;;;;;85.07;52.75;;;0.50;98.60;;;;;;5019310;28;20045;-79
2021/01/23 02:52:16;;;;;;;81.38;51.70;;;0.50;98.60;;;;;;5012970;28;20537;-79
2021/01/23 02:54:52;;;;;;;72.85;48.53;;;0.60;98.70;;;;;;5020857;28;20210;-79
2021/01/23 02:57:20;;;;;;;73.78;46.85;;;0.60;98.70;;;;;;5034768;28;20127;-79
2021/01/23 02:59:51;;;;;;;74.43;45.00;;;0.60;98.60;;;;;;5020519;28;20038;-79
2021/01/23 03:02:19;;;;;;;76.07;47.13;;;0.50;98.60;;;;;;5028624;28;20054;-79
2021/01/23 03:04:45;;;;;;;74.35;48.10;;;0.50;98.60;;;;;;5025712;28;20379;-79
2021/01/23 03:07:15;;;;;;;72.43;46.33;;;0.60;98.60;;;;;;5016387;28;20056;-79
2021/01/23 03:09:42;;;;;;;72.18;45.63;;;0.60;98.60;;;;;;5014064;28;20088;-79
2021/01/23 03:12:09;;;;;;;66.82;43.63;;;0.60;98.60;;;;;;5016002;28;20049;-79
2021/01/23 03:14:35;;;;;;;64.45;41.30;;;0.50;98.60;;;;;;5014305;28;20048;-79
2021/01/23 03:17:02;;;;;;;63.15;44.03;;;0.60;98.60;;;;;;5007792;28;20069;-79
2021/01/23 03:19:27;;;;;;;71.15;42.17;;;0.50;98.50;;;;;;5034154;28;20271;-79
2021/01/23 03:21:53;;;;;;;71.80;42.75;;;0.50;98.50;;;;;;5017851;28;20146;-79
2021/01/23 03:24:20;;;;;;;70.78;41.65;;;0.50;98.50;;;;;;5030437;28;20490;-79
2021/01/23 03:26:46;;;;;;;62.80;40.20;;;0.50;98.40;;;;;;5028928;28;20037;-80
2021/01/23 03:29:15;;;;;;;66.85;40.60;;;0.40;98.40;;;;;;5037228;28;20052;-80
2021/01/23 03:31:41;;;;;;;74.88;41.78;;;0.40;98.50;;;;;;5043570;28;20053;-80
2021/01/23 03:34:07;;;;;;;57.05;39.35;;;0.40;98.50;;;;;;5020714;28;20069;-80
2021/01/23 03:36:33;;;;;;;74.20;43.55;;;0.40;98.60;;;;;;5043451;28;20058;-79
2021/01/23 03:38:59;;;;;;;66.57;42.35;;;0.40;98.60;;;;;;5030931;28;20108;-79
2021/01/23 03:41:25;;;;;;;70.20;44.72;;;0.40;98.50;;;;;;5037517;28;20117;-79
2021/01/23 03:43:51;;;;;;;67.88;41.67;;;0.40;98.90;;;;;;5002429;28;20633;-80
2021/01/23 03:46:17;;;;;;;64.28;40.85;;;0.40;98.60;;;;;;5025316;28;20046;-79
2021/01/23 03:48:43;;;;;;;60.97;39.83;;;0.40;98.60;;;;;;5006350;28;20046;-79
2021/01/23 03:51:09;;;;;;;60.85;39.33;;;0.50;98.60;;;;;;5023289;28;20038;-79
2021/01/23 03:53:35;;;;;;;55.95;38.72;;;0.50;98.60;;;;;;5020793;28;20037;-79
2021/01/23 03:56:01;;;;;;;61.90;39.05;;;0.50;98.60;;;;;;5019806;28;20128;-79
2021/01/23 03:58:27;;;;;;;58.47;38.05;;;0.40;98.50;;;;;;5037728;28;20049;-79
2021/01/23 04:00:53;;;;;;;59.45;38.30;;;0.40;98.50;;;;;;5002481;28;20462;-80
2021/01/23 04:03:19;;;;;;;56.80;37.38;;;0.50;98.50;;;;;;5036974;28;20128;-80
2021/01/23 04:05:45;;;;;;;51.30;36.53;;;0.50;98.60;;;;;;5022104;28;20045;-79
2021/01/23 04:08:11;;;;;;;52.92;36.13;;;0.50;98.60;;;;;;5029358;28;20413;-79
2021/01/23 04:10:36;;;;;;;49.45;35.47;;;0.60;98.60;;;;;;5032505;28;20049;-79
2021/01/23 04:13:03;;;;;;;45.83;33.88;;;0.60;98.60;;;;;;5028575;28;20042;-79
2021/01/23 04:15:29;;;;;;;49.38;34.55;;;0.60;98.60;;;;;;5003631;28;20034;-79
2021/01/23 04:17:55;;;;;;;44.67;31.52;;;0.60;98.60;;;;;;5042015;28;20048;-79
2021/01/23 04:20:22;;;;;;;46.40;32.90;;;0.70;98.70;;;;;;4997943;28;20042;-80
2021/01/23 04:22:47;;;;;;;40.55;30.77;;;0.70;98.70;;;;;;5028276;28;20096;-80
2021/01/23 04:25:14;;;;;;;43.85;33.25;;;0.70;98.60;;;;;;5023666;28;20070;-79
2021/01/23 04:27:40;;;;;;;46.67;31.65;;;0.70;98.60;;;;;;5016329;28;20121;-79
2021/01/23 04:30:08;;;;;;;46.53;30.85;;;0.80;98.60;;;;;;5028229;28;20062;-79
2021/01/23 04:32:35;;;;;;;45.50;33.17;;;0.80;98.60;;;;;;5026841;28;20037;-79
2021/01/23 04:35:05;;;;;;;40.25;30.02;;;0.70;98.60;;;;;;5034004;28;20037;-79
2021/01/23 04:37:31;;;;;;;43.05;29.45;;;0.80;98.60;;;;;;5018241;28;20446;-79
2021/01/23 04:39:57;;;;;;;41.97;31.75;;;0.80;98.60;;;;;;5014657;28;20049;-79
2021/01/23 04:42:22;;;;;;;42.25;30.42;;;0.90;98.60;;;;;;5008425;28;20365;-79
2021/01/23 04:44:48;;;;;;;43.28;30.63;;;0.90;98.60;;;;;;5026224;28;20041;-79
2021/01/23 04:47:14;;;;;;;43.67;33.20;;;1.00;98.70;;;;;;5005439;28;20054;-80
2021/01/23 04:49:40;;;;;;;47.85;33.60;;;1.00;98.70;;;;;;5019829;28;20112;-79
2021/01/23 04:52:07;;;;;;;47.15;33.75;;;1.10;98.70;;;;;;5002975;28;20495;-79
2021/01/23 04:54:34;;;;;;;48.65;35.65;;;1.10;98.70;;;;;;5040821;28;20096;-80
2021/01/23 04:57:00;;;;;;;38.38;29.17;;;1.20;98.80;;;;;;5024154;28;20153;-79
2021/01/23 04:59:26;;;;;;;40.00;31.95;;;1.20;98.80;;;;;;5012366;28;20057;-79
2021/01/23 05:02:14;;;;;;;41.95;31.67;;;1.30;98.80;;;;;;5009212;28;20057;-80
2021/01/23 05:05:01;;;;;;;43.22;30.70;;;1.30;98.80;;;;;;5027836;28;20124;-79
2021/01/23 05:07:38;;;;;;;39.38;29.15;;;1.40;99.10;;;;;;5004845;28;20038;-79
2021/01/23 05:10:18;;;;;;;40.35;31.67;;;1.40;98.80;;;;;;5043874;28;20065;-79
2021/01/23 05:12:52;;;;;;;38.15;30.70;;;1.40;98.70;;;;;;5016211;28;20048;-79
2021/01/23 05:15:30;;;;;;;35.60;28.50;;;1.50;98.70;;;;;;5006987;28;20129;-79
2021/01/23 05:18:05;;;;;;;36.20;28.63;;;1.60;98.60;;;;;;5021891;28;20052;-79
2021/01/23 05:20:45;;;;;;;38.63;32.33;;;1.60;98.60;;;;;;5025117;28;20042;-79
2021/01/23 05:23:17;;;;;;;36.45;28.98;;;1.60;98.50;;;;;;5042186;28;20057;-79
2021/01/23 05:25:47;;;;;;;35.65;30.55;;;1.70;98.50;;;;;;5063704;28;20068;-80
2021/01/23 05:28:13;;;;;;;43.90;30.20;;;1.70;98.50;;;;;;5032269;28;20068;-80
2021/01/23 05:30:50;;;;;;;41.03;30.83;;;1.70;98.50;;;;;;5029952;28;20033;-80
2021/01/23 05:33:27;;;;;;;40.40;31.83;;;1.70;98.40;;;;;;5037929;28;20045;-80
2021/01/23 05:36:07;;;;;;;36.25;27.48;;;1.70;98.70;;;;;;5036092;28;20084;-79
2021/01/23 05:38:46;;;;;;;48.53;34.15;;;1.80;98.40;;;;;;5038771;28;20037;-80
2021/01/23 05:41:13;;;;;;;38.55;30.75;;;1.80;98.40;;;;;;5047415;28;20037;-80
2021/01/23 05:43:42;;;;;;;46.50;34.33;;;1.80;98.50;;;;;;5040568;28;20449;-80
2021/01/23 05:46:10;;;;;;;41.63;32.60;;;1.80;98.50;;;;;;5050076;28;20045;-80
2021/01/23 05:48:40;;;;;;;50.10;35.53;;;1.80;98.50;;;;;;5031357;28;20062;-79
2021/01/23 05:51:06;;;;;;;44.55;34.75;;;1.80;98.50;;;;;;5041782;28;20041;-80
2021/01/23 05:53:32;;;;;;;52.53;37.38;;;1.80;98.50;;;;;;5021816;28;20103;-79
2021/01/23 05:56:01;;;;;;;40.53;32.33;;;1.80;98.60;;;;;;5028647;28;20034;-79
2021/01/23 05:58:35;;;;;;;42.42;32.35;;;1.80;98.50;;;;;;5063530;28;20044;-80
2021/01/23 06:01:07;;;;;;;46.28;32.55;;;1.80;98.60;;;;;;5029111;28;20041;-80
2021/01/23 06:03:39;;;;;;;44.05;35.20;;;1.80;98.50;;;;;;5049519;28;20028;-79
2021/01/23 06:06:05;;;;;;;46.22;33.53;;;1.90;98.60;;;;;;5036352;28;20037;-79
2021/01/23 06:08:37;;;;;;;44.05;33.35;;;1.90;98.60;;;;;;5045920;28;20099;-79
2021/01/23 06:11:03;;;;;;;44.75;34.33;;;1.90;98.60;;;;;;5041566;28;20148;-80
2021/01/23 06:13:41;;;;;;;52.38;36.83;;;1.90;98.60;;;;;;5056330;28;20497;-79
2021/01/23 06:16:33;;;;;;;55.00;33.90;;;1.90;99.00;;;;;;5051468;28;20041;-79
2021/01/23 06:19:02;;;;;;;44.47;33.78;;;1.90;98.70;;;;;;5033624;28;20057;-80
2021/01/23 06:21:46;;;;;;;52.50;37.78;;;1.90;98.70;;;;;;5038007;28;20139;-80
2021/01/23 06:24:41;;;;;;;50.65;36.30;;;2.00;98.70;;;;;;5062258;28;20061;-79
2021/01/23 06:27:07;;;;;;;43.97;34.10;;;2.00;98.70;;;;;;5034970;28;20089;-79
2021/01/23 06:29:46;;;;;;;49.75;36.95;;;2.00;98.70;;;;;;5030530;28;20049;-80
2021/01/23 06:32:11;;;;;;;49.83;35.22;;;2.00;98.80;;;;;;5063056;28;20088;-79
2021/01/23 06:34:44;;;;;;;49.72;37.45;;;2.00;98.80;;;;;;5044828;28;20594;-79
2021/01/23 06:37:20;;;;;;;49.78;37.70;;;2.00;98.80;;;;;;5054767;28;20076;-80
2021/01/23 06:39:56;;;;;;;50.28;36.20;;;2.00;98.80;;;;;;5060885;28;20156;-80
2021/01/23 06:42:22;;;;;;;52.03;36.60;;;2.00;98.80;;;;;;5054188;28;20052;-79
2021/01/23 06:44:48;;;;;;;50.03;36.72;;;2.10;98.90;;;;;;5012791;28;20042;-79
2021/01/23 06:47:14;;;;;;;53.42;36.78;;;2.10;98.90;;;;;;5056234;28;20032;-79
2021/01/23 06:49:41;;;;;;;45.50;34.58;;;2.10;98.90;;;;;;5020988;28;20145;-79
2021/01/23 06:52:07;;;;;;;48.15;35.80;;;2.20;99.00;;;;;;5034227;28;20422;-79
2021/01/23 06:54:33;;;;;;;45.60;33.90;;;2.20;99.00;;;;;;5022336;28;20128;-79
2021/01/23 06:57:01;;;;;;;43.30;35.10;;;2.20;99.00;;;;;;5040745;28;20315;-79
2021/01/23 06:59:35;;;;;;;44.33;34.40;;;2.20;99.00;;;;;;5041525;28;20095;-79
2021/01/23 07:02:01;;;;;;;42.78;33.58;;;2.30;99.00;;;;;;5034670;28;20092;-79
2021/01/23 07:04:34;;;;;;;44.80;36.30;;;2.30;98.90;;;;;;5026242;28;20148;-79
2021/01/23 07:07:05;;;;;;;46.35;34.10;;;2.30;98.90;;;;;;5021017;28;21286;-79
2021/01/23 07:09:55;;;;;;;48.78;33.72;;;2.30;98.80;;;;;;5025504;28;20107;-79
2021/01/23 07:12:43;;;;;;;43.88;33.97;;;2.30;98.90;;;;;;5036013;28;20030;-79
2021/01/23 07:15:21;;;;;;;42.20;33.72;;;2.30;98.90;;;;;;5040958;28;20050;-79
2021/01/23 07:17:49;;;;;;;44.33;33.28;;;2.30;98.90;;;;;;5033305;28;20049;-79
2021/01/23 07:20:17;;;;;;;38.10;30.75;;;2.40;98.90;;;;;;5039914;28;20037;-79
2021/01/23 07:22:44;;;;;;;43.63;34.05;;;2.40;98.80;;;;;;5053884;28;20052;-79
2021/01/23 07:25:12;;;;;;;44.42;32.35;;;2.40;98.90;;;;;;5020795;28;20232;-78
2021/01/23 07:27:39;;;;;;;43.53;33.63;;;2.40;98.90;;;;;;5022719;28;20044;-79
2021/01/23 07:30:15;;;;;;;43.33;32.22;;;2.40;98.80;;;;;;5042022;28;20080;-79
2021/01/23 07:32:42;;;;;;;40.42;31.23;;;2.40;98.80;;;;;;5038945;28;20434;-79
2021/01/23 07:35:09;;;;;;;35.40;29.75;;;2.50;98.90;;;;;;5043613;28;20044;-79
2021/01/23 07:37:54;;;;;;;43.35;31.17;;;2.50;98.90;;;;;;5020908;28;20029;-80
2021/01/23 07:40:30;;;;;;;35.85;28.60;;;2.50;98.80;;;;;;5050689;28;20048;-80
2021/01/23 07:43:01;;;;;;;40.10;31.85;;;2.50;98.80;;;;;;5039599;28;20037;-79
2021/01/23 07:45:27;;;;;;;36.92;29.60;;;2.50;98.70;;;;;;5042029;28;20064;-80
2021/01/23 07:47:58;;;;;;;35.40;26.58;;;2.40;98.70;;;;;;5058348;28;20464;-80
2021/01/23 07:50:24;;;;;;;37.15;27.98;;;2.40;98.70;;;;;;5056804;28;20034;-82
2021/01/23 07:52:50;;;;;;;40.67;29.80;;;2.40;98.70;;;;;;5031830;28;20052;-82
2021/01/23 07:55:16;;;;;;;38.42;29.85;;;2.50;98.70;;;;;;5050194;28;20049;-82
2021/01/23 07:57:42;;;;;;;34.63;29.63;;;2.50;98.70;;;;;;5045157;28;20049;-82
2021/01/23 08:00:20;;;;;;;36.03;26.50;;;2.50;98.70;;;;;;5025787;28;20451;-82
2021/01/23 08:02:50;;;;;;;37.35;29.52;;;2.50;98.70;;;;;;5027738;28;20062;-82
2021/01/23 08:05:17;;;;;;;37.00;29.45;;;2.50;98.70;;;;;;5020459;28;20041;-82
2021/01/23 08:07:43;;;;;;;32.92;26.80;;;2.60;98.70;;;;;;5046364;28;20037;-82
2021/01/23 08:10:09;;;;;;;37.33;28.65;;;2.60;98.60;;;;;;5023497;28;20136;-83
2021/01/23 08:12:36;;;;;;;35.88;28.27;;;2.60;98.60;;;;;;5049905;28;20118;-82
2021/01/23 08:15:04;;;;;;;33.65;26.90;;;2.60;98.70;;;;;;5023938;28;20051;-82
2021/01/23 08:17:40;;;;;;;36.60;28.27;;;2.70;98.60;;;;;;5043699;28;20469;-81
2021/01/23 08:20:10;;;;;;;35.20;26.23;;;2.70;98.60;;;;;;5025112;28;20058;-81
2021/01/23 08:22:56;;;;;;;32.33;26.85;;;2.70;98.50;;;;;;5023309;28;20700;-81
2021/01/23 08:25:27;;;;;;;36.72;28.15;;;2.70;98.50;;;;;;5038111;28;20660;-82
2021/01/23 08:27:55;;;;;;;32.97;27.13;;;2.80;98.50;;;;;;5006303;28;20046;-82
2021/01/23 08:30:22;;;;;;;33.33;26.25;;;2.70;98.40;;;;;;4997284;28;20066;-82
2021/01/23 08:32:49;;;;;;;35.65;27.63;;;2.80;98.40;;;;;;5029748;28;20053;-81
2021/01/23 08:35:16;;;;;;;31.55;25.75;;;2.90;98.40;;;;;;5025492;28;20064;-82
2021/01/23 08:37:41;;;;;;;33.38;24.48;;;2.90;98.40;;;;;;5037535;28;20044;-82
2021/01/23 08:40:08;;;;;;;29.65;22.27;;;3.00;98.40;;;;;;5004193;28;20449;-81
2021/01/23 08:42:34;;;;;;;33.05;25.30;;;3.00;98.30;;;;;;5012216;28;20076;-82
2021/01/23 08:44:59;;;;;;;30.88;23.02;;;3.00;98.20;;;;;;5028342;28;20034;-82
2021/01/23 08:47:25;;;;;;;27.85;22.83;;;3.00;98.10;;;;;;5021465;28;20056;-82
2021/01/23 08:49:51;;;;;;;35.38;26.65;;;3.10;98.10;;;;;;5018570;28;20041;-82
2021/01/23 08:52:17;;;;;;;31.90;24.83;;;3.10;98.20;;;;;;5030842;28;20046;-81
2021/01/23 08:54:42;;;;;;;31.33;25.63;;;3.10;98.30;;;;;;5013894;28;20092;-80
2021/01/23 08:57:08;;;;;;;32.10;25.52;;;3.20;98.30;;;;;;5010562;28;20073;-80
2021/01/23 08:59:34;;;;;;;29.45;22.85;;;3.20;98.20;;;;;;5012191;28;20399;-80
2021/01/23 09:02:03;;;;;;;30.45;24.50;;;3.20;98.00;;;;;;5002385;28;20045;-79
2021/01/23 09:04:28;;;;;;;36.45;26.30;;;3.20;98.00;;;;;;5044990;28;20101;-82
2021/01/23 09:06:54;;;;;;;33.10;24.85;;;3.30;98.00;;;;;;5031365;28;20046;-82
2021/01/23 09:09:23;;;;;;;35.67;25.42;;;3.30;98.00;;;;;;5015588;28;20129;-82
2021/01/23 09:11:49;;;;;;;28.88;24.55;;;3.40;97.90;;;;;;5020678;28;20057;-82
2021/01/23 09:14:16;;;;;;;30.90;23.95;;;3.50;98.40;;;;;;5027374;28;20041;-82
2021/01/23 09:16:41;;;;;;;33.75;25.35;;;3.50;97.90;;;;;;5030547;28;20149;-82
2021/01/23 09:19:08;;;;;;;33.05;26.00;;;3.50;98.10;;;;;;5014834;28;20478;-83
2021/01/23 09:21:34;;;;;;;25.27;21.02;;;3.50;97.90;;;;;;5027918;28;20133;-82
2021/01/23 09:24:00;;;;;;;27.80;23.40;;;3.60;98.10;;;;;;5064650;28;20049;-82
2021/01/23 09:26:25;;;;;;;25.40;22.30;;;3.60;98.00;;;;;;5032481;28;20067;-82
2021/01/23 09:28:51;;;;;;;24.90;21.65;;;3.60;97.80;;;;;;5023725;28;20073;-82
2021/01/23 09:31:17;;;;;;;27.42;23.95;;;3.70;97.80;;;;;;5028453;28;20044;-82
2021/01/23 09:33:44;;;;;;;26.90;22.23;;;3.80;97.70;;;;;;5046519;28;20065;-82
2021/01/23 09:36:10;;;;;;;27.70;23.38;;;3.80;97.70;;;;;;5064638;28;20107;-82
2021/01/23 09:38:35;;;;;;;26.45;21.15;;;3.90;97.40;;;;;;5026134;28;20057;-82
2021/01/23 09:41:01;;;;;;;28.33;18.67;;;3.80;97.40;;;;;;5050675;28;20477;-82
2021/01/23 09:43:27;;;;;;;26.25;20.02;;;3.90;97.10;;;;;;5045316;28;20467;-82
2021/01/23 09:45:53;;;;;;;25.45;20.48;;;3.90;97.20;;;;;;5037210;28;20053;-82
2021/01/23 09:48:20;;;;;;;25.67;21.08;;;3.90;97.40;;;;;;5027353;28;20119;-83
2021/01/23 09:50:45;;;;;;;24.27;20.73;;;3.90;97.30;;;;;;5036302;28;20037;-83
2021/01/23 09:53:11;;;;;;;25.88;21.60;;;3.90;97.20;;;;;;5044365;28;20115;-82
2021/01/23 09:55:37;;;;;;;22.42;19.98;;;4.00;97.10;;;;;;5044660;28;20028;-82
2021/01/23 09:58:03;;;;;;;28.00;20.77;;;4.00;97.10;;;;;;5038092;28;20048;-82
2021/01/23 10:00:29;;;;;;;27.38;21.58;;;4.00;96.90;;;;;;5050799;28;20041;-82
2021/01/23 10:02:54;;;;;;;25.40;19.85;;;4.00;97.00;;;;;;5056160;28;20041;-82
2021/01/23 10:05:20;;;;;;;24.30;19.80;;;4.00;97.30;;;;;;5060027;28;20047;-82
2021/01/23 10:07:47;;;;;;;24.10;19.55;;;4.00;97.10;;;;;;5030642;28;20107;-82
2021/01/23 10:10:13;;;;;;;25.60;21.67;;;4.00;97.00;;;;;;5030031;28;20477;-83
2021/01/23 10:12:39;;;;;;;27.88;20.02;;;4.00;96.90;;;;;;5019296;28;20049;-82
2021/01/23 10:15:05;;;;;;;22.80;19.67;;;4.10;97.30;;;;;;5023199;28;20132;-82
2021/01/23 10:17:31;;;;;;;22.45;19.80;;;4.20;97.40;;;;;;5053450;28;20053;-83
2021/01/23 10:19:57;;;;;;;23.05;20.13;;;4.20;97.20;;;;;;5065988;28;20071;-82
2021/01/23 10:22:23;;;;;;;20.92;18.48;;;4.30;97.00;;;;;;5035360;28;20183;-82
2021/01/23 10:24:49;;;;;;;23.35;19.70;;;4.30;97.00;;;;;;5032725;28;20053;-82
2021/01/23 10:27:14;;;;;;;22.80;19.35;;;4.40;96.90;;;;;;5034005;28;20137;-82
2021/01/23 10:29:40;;;;;;;23.45;20.15;;;4.50;96.90;;;;;;5065659;28;20032;-82
2021/01/23 10:32:06;;;;;;;20.05;17.95;;;4.50;96.70;;;;;;5049502;28;20037;-82
2021/01/23 10:34:32;;;;;;;19.33;17.10;;;4.50;96.90;;;;;;5035951;28;20058;-82
2021/01/23 10:36:57;;;;;;;17.73;15.38;;;4.50;96.70;;;;;;5042300;28;20045;-84
2021/01/23 10:39:24;;;;;;;21.55;18.65;;;4.60;96.60;;;;;;5050560;28;20067;-82
2021/01/23 10:41:50;;;;;;;20.67;18.48;;;4.70;96.80;;;;;;5048940;28;20037;-82
2021/01/23 10:44:16;;;;;;;20.75;16.75;;;4.60;96.60;;;;;;5030154;28;20146;-82
2021/01/23 10:46:42;;;;;;;20.52;17.70;;;4.60;96.60;;;;;;5031164;28;20104;-83
2021/01/23 10:49:08;;;;;;;20.90;16.05;;;4.60;96.80;;;;;;5031321;28;20218;-83
2021/01/23 10:51:34;;;;;;;23.00;20.20;;;4.70;96.80;;;;;;5044318;28;20040;-82
2021/01/23 10:53:59;;;;;;;18.95;16.95;;;4.70;97.20;;;;;;5067770;28;20503;-82
2021/01/23 10:56:25;;;;;;;20.23;17.98;;;4.70;96.90;;;;;;5040297;28;20077;-82
2021/01/23 10:58:51;;;;;;;18.60;16.55;;;4.80;96.40;;;;;;5052197;28;20120;-82
2021/01/23 11:01:17;;;;;;;20.33;18.20;;;4.80;96.00;;;;;;5028605;28;20053;-84
2021/01/23 11:03:43;;;;;;;21.38;18.80;;;4.90;96.50;;;;;;5041194;28;20045;-82
2021/01/23 11:06:08;;;;;;;22.55;17.77;;;5.00;96.00;;;;;;5034688;28;20064;-82
2021/01/23 11:08:35;;;;;;;21.15;17.13;;;5.00;96.30;;;;;;5035632;28;20120;-82
2021/01/23 11:11:00;;;;;;;21.40;14.95;;;5.00;96.10;;;;;;5047622;28;20064;-82
2021/01/23 11:13:29;;;;;;;15.15;13.48;;;5.00;95.50;;;;;;5052033;28;20124;-82
2021/01/23 11:15:55;;;;;;;19.00;16.00;;;5.00;95.80;;;;;;5056221;28;20107;-84
2021/01/23 11:18:21;;;;;;;15.45;13.73;;;4.90;95.50;;;;;;5035718;28;20053;-82
2021/01/23 11:20:49;;;;;;;14.13;12.63;;;4.90;95.50;;;;;;5050738;28;20051;-82
2021/01/23 11:23:15;;;;;;;15.20;13.63;;;5.00;95.50;;;;;;5042321;28;20073;-81
2021/01/23 11:25:40;;;;;;;14.45;12.95;;;4.90;95.50;;;;;;5048876;28;20398;-82
2021/01/23 11:28:06;;;;;;;12.80;11.15;;;4.90;95.60;;;;;;5056782;28;20084;-82
2021/01/23 11:30:32;;;;;;;15.20;13.60;;;4.90;95.40;;;;;;5032267;28;20049;-82
2021/01/23 11:32:58;;;;;;;14.50;13.00;;;5.00;95.80;;;;;;5023542;28;20049;-82
2021/01/23 11:35:23;;;;;;;13.93;12.63;;;5.00;95.60;;;;;;5033856;28;20101;-81
2021/01/23 11:37:49;;;;;;;12.88;11.68;;;5.00;95.00;;;;;;5044123;28;20383;-82
2021/01/23 11:40:15;;;;;;;14.48;10.63;;;4.90;95.40;;;;;;5068858;28;20057;-82
2021/01/23 11:42:41;;;;;;;16.25;14.63;;;4.80;95.10;;;;;;5031177;28;20115;-82
2021/01/23 11:45:08;;;;;;;14.50;11.95;;;4.70;95.10;;;;;;5056584;28;20089;-82
2021/01/23 11:47:34;;;;;;;13.30;11.82;;;4.80;95.80;;;;;;5030142;28;20036;-82
2021/01/23 11:50:01;;;;;;;13.32;10.35;;;4.80;95.40;;;;;;5034006;28;20540;-83
2021/01/23 11:52:26;;;;;;;11.60;10.23;;;4.90;95.20;;;;;;5060351;28;20484;-82
2021/01/23 11:54:52;;;;;;;13.30;11.10;;;5.00;94.70;;;;;;5028280;28;20061;-82
2021/01/23 11:57:18;;;;;;;11.93;9.90;;;5.10;94.90;;;;;;5044560;28;20037;-82
2021/01/23 11:59:43;;;;;;;13.05;10.77;;;5.20;94.60;;;;;;5055618;28;20134;-82
2021/01/23 12:02:09;;;;;;;10.77;9.80;;;5.20;94.90;;;;;;5034198;28;20033;-82
2021/01/23 12:04:35;;;;;;;11.80;10.35;;;5.40;94.10;;;;;;5040489;28;20045;-82
2021/01/23 12:07:01;;;;;;;11.15;10.05;;;5.50;94.10;;;;;;5029827;28;20037;-83
2021/01/23 12:09:28;;;;;;;8.43;7.53;;;5.50;93.80;;;;;;5020814;28;20166;-82
2021/01/23 12:11:54;;;;;;;8.13;7.25;;;5.50;93.80;;;;;;5043522;28;20064;-83
2021/01/23 12:14:21;;;;;;;9.65;7.80;;;5.50;93.30;;;;;;5057134;28;20049;-82
2021/01/23 12:16:46;;;;;;;10.40;8.32;;;5.50;93.30;;;;;;5048927;28;20030;-83
2021/01/23 12:19:12;;;;;;;9.98;8.98;;;5.50;93.60;;;;;;5043608;28;20060;-82
2021/01/23 12:21:38;;;;;;;11.95;10.38;;;5.50;94.10;;;;;;5048376;28;24177;-83
2021/01/23 12:24:04;;;;;;;11.07;9.95;;;5.50;93.40;;;;;;5044879;28;20418;-83
2021/01/23 12:26:30;;;;;;;11.35;8.80;;;5.60;94.00;;;;;;5050169;28;20577;-83
2021/01/23 12:28:56;;;;;;;9.57;8.60;;;5.50;93.40;;;;;;5023757;28;20068;-82
2021/01/23 12:31:22;;;;;;;8.25;7.45;;;5.50;93.20;;;;;;5033140;28;20057;-82
2021/01/23 12:33:48;;;;;;;7.45;6.68;;;5.50;93.50;;;;;;5027557;28;20559;-82
2021/01/23 12:36:14;;;;;;;7.63;6.45;;;5.50;93.50;;;;;;5050817;28;20061;-82
2021/01/23 12:38:40;;;;;;;9.25;7.20;;;5.50;93.10;;;;;;5041636;28;20045;-81
2021/01/23 12:41:06;;;;;;;8.27;7.47;;;5.50;93.30;;;;;;5045232;28;20080;-81
2021/01/23 12:43:32;;;;;;;7.80;6.63;;;5.50;93.10;;;;;;5035776;28;20132;-81